sensor_id;sensor_type;location;lat;lon;timestamp;P1;durP1;ratioP1;P2;durP2;ratioP2
41436;SDS011;27178;49.460;10.850;2023-04-03T00:01:17;2.07;;;1.87;;
41436;SDS011;27178;49.460;10.850;2023-04-03T00:03:46;1.73;;;1.63;;
41436;SDS011;27178;49.460;10.850;2023-04-03T00:06:16;3.60;;;1.37;;
41436;SDS011;27178;49.460;10.850;2023-04-03T00:08:44;2.13;;;1.80;;
41436;SDS011;27178;49.460;10.850;2023-04-03T00:11:12;2.57;;;1.63;;
41436;SDS011;27178;49.460;10.850;2023-04-03T00:13:41;2.60;;;1.40;;
41436;SDS011;27178;49.460;10.850;2023-04-03T00:16:11;2.10;;;1.87;;
41436;SDS011;27178;49.460;10.850;2023-04-03T00:18:40;1.70;;;1.60;;
41436;SDS011;27178;49.460;10.850;2023-04-03T00:21:09;1.80;;;1.67;;
41436;SDS011;27178;49.460;10.850;2023-04-03T00:23:41;2.17;;;1.80;;
41436;SDS011;27178;49.460;10.850;2023-04-03T00:26:09;1.50;;;1.40;;
41436;SDS011;27178;49.460;10.850;2023-04-03T00:28:37;1.80;;;1.70;;
41436;SDS011;27178;49.460;10.850;2023-04-03T00:31:06;1.80;;;1.70;;
41436;SDS011;27178;49.460;10.850;2023-04-03T00:33:34;2.00;;;1.90;;
41436;SDS011;27178;49.460;10.850;2023-04-03T00:36:06;1.90;;;1.80;;
41436;SDS011;27178;49.460;10.850;2023-04-03T00:38:35;1.77;;;1.67;;
41436;SDS011;27178;49.460;10.850;2023-04-03T00:41:05;1.90;;;1.80;;
41436;SDS011;27178;49.460;10.850;2023-04-03T00:43:34;1.60;;;1.50;;
41436;SDS011;27178;49.460;10.850;2023-04-03T00:46:02;2.17;;;1.97;;
41436;SDS011;27178;49.460;10.850;2023-04-03T00:48:32;1.80;;;1.70;;
41436;SDS011;27178;49.460;10.850;2023-04-03T00:51:03;1.60;;;1.50;;
41436;SDS011;27178;49.460;10.850;2023-04-03T00:53:34;2.00;;;1.80;;
41436;SDS011;27178;49.460;10.850;2023-04-03T00:56:08;2.20;;;2.00;;
41436;SDS011;27178;49.460;10.850;2023-04-03T00:58:39;2.53;;;1.60;;
41436;SDS011;27178;49.460;10.850;2023-04-03T01:01:10;1.97;;;1.87;;
41436;SDS011;27178;49.460;10.850;2023-04-03T01:03:43;1.80;;;1.70;;
41436;SDS011;27178;49.460;10.850;2023-04-03T01:06:13;1.97;;;1.87;;
41436;SDS011;27178;49.460;10.850;2023-04-03T01:08:44;2.20;;;1.93;;
41436;SDS011;27178;49.460;10.850;2023-04-03T01:11:14;2.10;;;1.90;;
41436;SDS011;27178;49.460;10.850;2023-04-03T01:13:43;2.30;;;2.10;;
41436;SDS011;27178;49.460;10.850;2023-04-03T01:16:12;2.27;;;1.90;;
41436;SDS011;27178;49.460;10.850;2023-04-03T01:18:40;1.97;;;1.70;;
41436;SDS011;27178;49.460;10.850;2023-04-03T01:21:19;1.87;;;1.77;;
41436;SDS011;27178;49.460;10.850;2023-04-03T01:24:08;1.63;;;1.53;;
41436;SDS011;27178;49.460;10.850;2023-04-03T01:26:54;2.00;;;1.83;;
41436;SDS011;27178;49.460;10.850;2023-04-03T01:29:23;1.63;;;1.50;;
41436;SDS011;27178;49.460;10.850;2023-04-03T01:31:53;1.90;;;1.80;;
41436;SDS011;27178;49.460;10.850;2023-04-03T01:34:24;2.07;;;1.87;;
41436;SDS011;27178;49.460;10.850;2023-04-03T01:36:54;1.80;;;1.70;;
41436;SDS011;27178;49.460;10.850;2023-04-03T01:39:22;1.73;;;1.60;;
41436;SDS011;27178;49.460;10.850;2023-04-03T01:41:51;1.73;;;1.63;;
41436;SDS011;27178;49.460;10.850;2023-04-03T01:44:19;1.57;;;1.47;;
41436;SDS011;27178;49.460;10.850;2023-04-03T01:46:47;1.87;;;1.63;;
41436;SDS011;27178;49.460;10.850;2023-04-03T01:49:17;1.93;;;1.73;;
41436;SDS011;27178;49.460;10.850;2023-04-03T01:51:46;1.90;;;1.77;;
41436;SDS011;27178;49.460;10.850;2023-04-03T01:54:14;2.13;;;1.93;;
41436;SDS011;27178;49.460;10.850;2023-04-03T01:56:42;1.63;;;1.53;;
41436;SDS011;27178;49.460;10.850;2023-04-03T01:59:10;1.67;;;1.57;;
41436;SDS011;27178;49.460;10.850;2023-04-03T02:01:38;2.07;;;1.70;;
41436;SDS011;27178;49.460;10.850;2023-04-03T02:04:07;2.33;;;1.93;;
41436;SDS011;27178;49.460;10.850;2023-04-03T02:06:37;1.83;;;1.73;;
41436;SDS011;27178;49.460;10.850;2023-04-03T02:09:06;2.10;;;2.00;;
41436;SDS011;27178;49.460;10.850;2023-04-03T02:11:34;1.93;;;1.83;;
41436;SDS011;27178;49.460;10.850;2023-04-03T02:14:02;1.67;;;1.57;;
41436;SDS011;27178;49.460;10.850;2023-04-03T02:16:31;2.83;;;1.97;;
41436;SDS011;27178;49.460;10.850;2023-04-03T02:18:59;1.90;;;1.70;;
41436;SDS011;27178;49.460;10.850;2023-04-03T02:21:28;2.10;;;1.90;;
41436;SDS011;27178;49.460;10.850;2023-04-03T02:23:57;1.50;;;1.40;;
41436;SDS011;27178;49.460;10.850;2023-04-03T02:26:26;1.80;;;1.70;;
41436;SDS011;27178;49.460;10.850;2023-04-03T02:28:54;1.63;;;1.50;;
41436;SDS011;27178;49.460;10.850;2023-04-03T02:31:22;1.40;;;1.30;;
41436;SDS011;27178;49.460;10.850;2023-04-03T02:33:51;2.17;;;2.00;;
41436;SDS011;27178;49.460;10.850;2023-04-03T02:36:19;1.77;;;1.67;;
41436;SDS011;27178;49.460;10.850;2023-04-03T02:38:47;3.17;;;1.80;;
41436;SDS011;27178;49.460;10.850;2023-04-03T02:41:17;2.70;;;1.73;;
41436;SDS011;27178;49.460;10.850;2023-04-03T02:43:47;2.23;;;1.80;;
41436;SDS011;27178;49.460;10.850;2023-04-03T02:46:16;2.97;;;2.10;;
41436;SDS011;27178;49.460;10.850;2023-04-03T02:48:44;1.83;;;1.63;;
41436;SDS011;27178;49.460;10.850;2023-04-03T02:51:13;1.57;;;1.47;;
41436;SDS011;27178;49.460;10.850;2023-04-03T02:53:42;1.73;;;1.63;;
41436;SDS011;27178;49.460;10.850;2023-04-03T02:56:10;1.70;;;1.60;;
41436;SDS011;27178;49.460;10.850;2023-04-03T02:58:40;2.03;;;1.80;;
41436;SDS011;27178;49.460;10.850;2023-04-03T03:01:09;1.93;;;1.70;;
41436;SDS011;27178;49.460;10.850;2023-04-03T03:03:37;2.07;;;1.87;;
41436;SDS011;27178;49.460;10.850;2023-04-03T03:06:06;1.97;;;1.60;;
41436;SDS011;27178;49.460;10.850;2023-04-03T03:08:36;1.60;;;1.50;;
41436;SDS011;27178;49.460;10.850;2023-04-03T03:11:05;2.23;;;1.70;;
41436;SDS011;27178;49.460;10.850;2023-04-03T03:13:34;1.70;;;1.50;;
41436;SDS011;27178;49.460;10.850;2023-04-03T03:16:04;1.63;;;1.53;;
41436;SDS011;27178;49.460;10.850;2023-04-03T03:18:33;1.63;;;1.43;;
41436;SDS011;27178;49.460;10.850;2023-04-03T03:21:02;2.57;;;1.87;;
41436;SDS011;27178;49.460;10.850;2023-04-03T03:23:32;1.90;;;1.57;;
41436;SDS011;27178;49.460;10.850;2023-04-03T03:26:02;1.70;;;1.60;;
41436;SDS011;27178;49.460;10.850;2023-04-03T03:28:32;1.70;;;1.60;;
41436;SDS011;27178;49.460;10.850;2023-04-03T03:31:00;2.07;;;1.80;;
41436;SDS011;27178;49.460;10.850;2023-04-03T03:33:30;2.50;;;1.70;;
41436;SDS011;27178;49.460;10.850;2023-04-03T03:35:59;3.40;;;1.87;;
41436;SDS011;27178;49.460;10.850;2023-04-03T03:38:28;2.13;;;1.80;;
41436;SDS011;27178;49.460;10.850;2023-04-03T03:40:56;2.10;;;1.60;;
41436;SDS011;27178;49.460;10.850;2023-04-03T03:43:24;1.63;;;1.53;;
41436;SDS011;27178;49.460;10.850;2023-04-03T03:45:53;1.90;;;1.80;;
41436;SDS011;27178;49.460;10.850;2023-04-03T03:48:22;2.50;;;2.27;;
41436;SDS011;27178;49.460;10.850;2023-04-03T03:50:52;2.50;;;1.60;;
41436;SDS011;27178;49.460;10.850;2023-04-03T03:53:21;2.77;;;1.90;;
41436;SDS011;27178;49.460;10.850;2023-04-03T03:55:49;2.00;;;1.80;;
41436;SDS011;27178;49.460;10.850;2023-04-03T03:58:17;2.37;;;2.17;;
41436;SDS011;27178;49.460;10.850;2023-04-03T04:00:46;3.57;;;2.17;;
41436;SDS011;27178;49.460;10.850;2023-04-03T04:03:15;2.63;;;2.03;;
41436;SDS011;27178;49.460;10.850;2023-04-03T04:05:43;2.53;;;2.23;;
41436;SDS011;27178;49.460;10.850;2023-04-03T04:08:13;3.97;;;2.40;;
41436;SDS011;27178;49.460;10.850;2023-04-03T04:10:41;2.57;;;2.17;;
41436;SDS011;27178;49.460;10.850;2023-04-03T04:13:09;2.27;;;2.03;;
41436;SDS011;27178;49.460;10.850;2023-04-03T04:15:39;2.57;;;2.27;;
41436;SDS011;27178;49.460;10.850;2023-04-03T04:18:07;3.03;;;2.07;;
41436;SDS011;27178;49.460;10.850;2023-04-03T04:20:36;4.07;;;2.33;;
41436;SDS011;27178;49.460;10.850;2023-04-03T04:23:04;2.80;;;2.40;;
41436;SDS011;27178;49.460;10.850;2023-04-03T04:25:34;3.43;;;2.10;;
41436;SDS011;27178;49.460;10.850;2023-04-03T04:28:03;2.53;;;2.33;;
41436;SDS011;27178;49.460;10.850;2023-04-03T04:30:32;3.13;;;2.20;;
41436;SDS011;27178;49.460;10.850;2023-04-03T04:33:00;2.60;;;2.40;;
41436;SDS011;27178;49.460;10.850;2023-04-03T04:35:28;4.00;;;2.80;;
41436;SDS011;27178;49.460;10.850;2023-04-03T04:37:57;4.23;;;3.03;;
41436;SDS011;27178;49.460;10.850;2023-04-03T04:40:26;3.30;;;3.00;;
41436;SDS011;27178;49.460;10.850;2023-04-03T04:42:56;4.37;;;3.20;;
41436;SDS011;27178;49.460;10.850;2023-04-03T04:45:24;4.93;;;3.80;;
41436;SDS011;27178;49.460;10.850;2023-04-03T04:47:54;3.50;;;3.20;;
41436;SDS011;27178;49.460;10.850;2023-04-03T04:50:22;4.13;;;2.60;;
41436;SDS011;27178;49.460;10.850;2023-04-03T04:52:51;3.80;;;2.10;;
41436;SDS011;27178;49.460;10.850;2023-04-03T04:55:19;4.80;;;2.60;;
41436;SDS011;27178;49.460;10.850;2023-04-03T04:57:48;2.93;;;2.60;;
41436;SDS011;27178;49.460;10.850;2023-04-03T05:00:18;4.17;;;2.80;;
41436;SDS011;27178;49.460;10.850;2023-04-03T05:02:47;5.37;;;2.40;;
41436;SDS011;27178;49.460;10.850;2023-04-03T05:05:15;4.47;;;2.83;;
41436;SDS011;27178;49.460;10.850;2023-04-03T05:07:44;3.77;;;2.60;;
41436;SDS011;27178;49.460;10.850;2023-04-03T05:10:12;2.83;;;2.30;;
41436;SDS011;27178;49.460;10.850;2023-04-03T05:12:41;3.97;;;2.77;;
41436;SDS011;27178;49.460;10.850;2023-04-03T05:15:09;2.60;;;2.33;;
41436;SDS011;27178;49.460;10.850;2023-04-03T05:17:39;3.50;;;2.73;;
41436;SDS011;27178;49.460;10.850;2023-04-03T05:20:08;3.80;;;2.50;;
41436;SDS011;27178;49.460;10.850;2023-04-03T05:22:37;4.13;;;2.50;;
41436;SDS011;27178;49.460;10.850;2023-04-03T05:25:06;3.27;;;2.57;;
41436;SDS011;27178;49.460;10.850;2023-04-03T05:27:35;3.13;;;2.40;;
41436;SDS011;27178;49.460;10.850;2023-04-03T05:30:04;3.93;;;3.03;;
41436;SDS011;27178;49.460;10.850;2023-04-03T05:32:33;5.23;;;3.53;;
41436;SDS011;27178;49.460;10.850;2023-04-03T05:35:04;4.87;;;3.87;;
41436;SDS011;27178;49.460;10.850;2023-04-03T05:37:33;4.47;;;3.57;;
41436;SDS011;27178;49.460;10.850;2023-04-03T05:40:02;4.30;;;3.17;;
41436;SDS011;27178;49.460;10.850;2023-04-03T05:42:30;4.03;;;3.27;;
41436;SDS011;27178;49.460;10.850;2023-04-03T05:44:59;6.40;;;4.47;;
41436;SDS011;27178;49.460;10.850;2023-04-03T05:47:27;6.20;;;5.00;;
41436;SDS011;27178;49.460;10.850;2023-04-03T05:49:57;5.70;;;3.93;;
41436;SDS011;27178;49.460;10.850;2023-04-03T05:52:27;4.23;;;3.10;;
41436;SDS011;27178;49.460;10.850;2023-04-03T05:54:57;3.60;;;2.97;;
41436;SDS011;27178;49.460;10.850;2023-04-03T05:57:26;2.83;;;2.40;;
41436;SDS011;27178;49.460;10.850;2023-04-03T05:59:54;2.63;;;2.40;;
41436;SDS011;27178;49.460;10.850;2023-04-03T06:02:23;4.00;;;2.50;;
41436;SDS011;27178;49.460;10.850;2023-04-03T06:04:52;2.63;;;2.20;;
41436;SDS011;27178;49.460;10.850;2023-04-03T06:07:21;4.10;;;2.50;;
41436;SDS011;27178;49.460;10.850;2023-04-03T06:09:55;2.20;;;2.00;;
41436;SDS011;27178;49.460;10.850;2023-04-03T06:12:24;3.53;;;2.20;;
41436;SDS011;27178;49.460;10.850;2023-04-03T06:14:55;2.97;;;2.20;;
41436;SDS011;27178;49.460;10.850;2023-04-03T06:17:23;3.97;;;2.43;;
41436;SDS011;27178;49.460;10.850;2023-04-03T06:19:52;2.83;;;2.30;;
41436;SDS011;27178;49.460;10.850;2023-04-03T06:22:20;6.27;;;2.33;;
41436;SDS011;27178;49.460;10.850;2023-04-03T06:24:48;5.13;;;2.50;;
41436;SDS011;27178;49.460;10.850;2023-04-03T06:27:18;3.13;;;2.40;;
41436;SDS011;27178;49.460;10.850;2023-04-03T06:29:47;2.60;;;2.40;;
41436;SDS011;27178;49.460;10.850;2023-04-03T06:32:15;3.53;;;2.53;;
41436;SDS011;27178;49.460;10.850;2023-04-03T06:34:44;3.27;;;2.50;;
41436;SDS011;27178;49.460;10.850;2023-04-03T06:37:13;4.03;;;2.20;;
41436;SDS011;27178;49.460;10.850;2023-04-03T06:39:43;3.83;;;2.20;;
41436;SDS011;27178;49.460;10.850;2023-04-03T06:42:11;2.60;;;2.17;;
41436;SDS011;27178;49.460;10.850;2023-04-03T06:44:42;2.50;;;2.30;;
41436;SDS011;27178;49.460;10.850;2023-04-03T06:47:10;6.17;;;2.57;;
41436;SDS011;27178;49.460;10.850;2023-04-03T06:49:40;3.13;;;2.60;;
41436;SDS011;27178;49.460;10.850;2023-04-03T06:52:09;5.93;;;2.80;;
41436;SDS011;27178;49.460;10.850;2023-04-03T06:54:38;3.23;;;2.67;;
41436;SDS011;27178;49.460;10.850;2023-04-03T06:57:07;3.97;;;2.33;;
41436;SDS011;27178;49.460;10.850;2023-04-03T06:59:36;4.07;;;2.80;;
41436;SDS011;27178;49.460;10.850;2023-04-03T07:02:06;4.60;;;2.90;;
41436;SDS011;27178;49.460;10.850;2023-04-03T07:04:36;3.60;;;2.37;;
41436;SDS011;27178;49.460;10.850;2023-04-03T07:07:05;4.93;;;2.43;;
41436;SDS011;27178;49.460;10.850;2023-04-03T07:09:33;3.70;;;2.47;;
41436;SDS011;27178;49.460;10.850;2023-04-03T07:12:02;3.90;;;2.70;;
41436;SDS011;27178;49.460;10.850;2023-04-03T07:14:31;4.17;;;2.60;;
41436;SDS011;27178;49.460;10.850;2023-04-03T07:17:00;3.10;;;2.23;;
41436;SDS011;27178;49.460;10.850;2023-04-03T07:19:30;4.20;;;2.50;;
41436;SDS011;27178;49.460;10.850;2023-04-03T07:21:58;5.13;;;3.33;;
41436;SDS011;27178;49.460;10.850;2023-04-03T07:24:26;2.93;;;2.73;;
41436;SDS011;27178;49.460;10.850;2023-04-03T07:26:54;2.73;;;2.13;;
41436;SDS011;27178;49.460;10.850;2023-04-03T07:29:23;2.93;;;2.40;;
41436;SDS011;27178;49.460;10.850;2023-04-03T07:31:52;2.77;;;2.33;;
41436;SDS011;27178;49.460;10.850;2023-04-03T07:34:22;3.20;;;2.37;;
41436;SDS011;27178;49.460;10.850;2023-04-03T07:36:51;4.10;;;2.57;;
41436;SDS011;27178;49.460;10.850;2023-04-03T07:39:19;3.90;;;2.50;;
41436;SDS011;27178;49.460;10.850;2023-04-03T07:41:48;3.13;;;2.50;;
41436;SDS011;27178;49.460;10.850;2023-04-03T07:44:16;2.70;;;2.50;;
41436;SDS011;27178;49.460;10.850;2023-04-03T07:46:45;3.30;;;2.63;;
41436;SDS011;27178;49.460;10.850;2023-04-03T07:49:15;2.30;;;2.10;;
41436;SDS011;27178;49.460;10.850;2023-04-03T07:51:44;2.57;;;2.37;;
41436;SDS011;27178;49.460;10.850;2023-04-03T07:54:14;3.23;;;2.70;;
41436;SDS011;27178;49.460;10.850;2023-04-03T07:56:43;2.73;;;2.47;;
41436;SDS011;27178;49.460;10.850;2023-04-03T07:59:11;5.10;;;2.50;;
41436;SDS011;27178;49.460;10.850;2023-04-03T08:01:39;3.23;;;2.43;;
41436;SDS011;27178;49.460;10.850;2023-04-03T08:04:08;2.60;;;2.20;;
41436;SDS011;27178;49.460;10.850;2023-04-03T08:06:37;3.67;;;2.47;;
41436;SDS011;27178;49.460;10.850;2023-04-03T08:09:12;3.73;;;2.70;;
41436;SDS011;27178;49.460;10.850;2023-04-03T08:11:43;4.90;;;2.80;;
41436;SDS011;27178;49.460;10.850;2023-04-03T08:14:12;3.00;;;2.40;;
41436;SDS011;27178;49.460;10.850;2023-04-03T08:16:45;2.60;;;2.33;;
41436;SDS011;27178;49.460;10.850;2023-04-03T08:19:14;3.67;;;2.20;;
41436;SDS011;27178;49.460;10.850;2023-04-03T08:21:52;2.93;;;2.30;;
41436;SDS011;27178;49.460;10.850;2023-04-03T08:24:21;3.77;;;2.20;;
41436;SDS011;27178;49.460;10.850;2023-04-03T08:26:50;3.37;;;2.30;;
41436;SDS011;27178;49.460;10.850;2023-04-03T08:29:18;3.67;;;2.40;;
41436;SDS011;27178;49.460;10.850;2023-04-03T08:31:47;3.97;;;2.27;;
41436;SDS011;27178;49.460;10.850;2023-04-03T08:34:16;2.27;;;2.07;;
41436;SDS011;27178;49.460;10.850;2023-04-03T08:36:45;3.03;;;2.07;;
41436;SDS011;27178;49.460;10.850;2023-04-03T08:39:14;3.93;;;2.37;;
41436;SDS011;27178;49.460;10.850;2023-04-03T08:41:42;3.13;;;2.20;;
41436;SDS011;27178;49.460;10.850;2023-04-03T08:44:15;2.60;;;2.40;;
41436;SDS011;27178;49.460;10.850;2023-04-03T08:46:55;3.67;;;2.40;;
41436;SDS011;27178;49.460;10.850;2023-04-03T08:49:31;2.73;;;2.20;;
41436;SDS011;27178;49.460;10.850;2023-04-03T08:52:03;4.00;;;2.35;;
41436;SDS011;27178;49.460;10.850;2023-04-03T08:54:36;2.00;;;1.90;;
41436;SDS011;27178;49.460;10.850;2023-04-03T08:57:16;2.20;;;2.00;;
41436;SDS011;27178;49.460;10.850;2023-04-03T08:59:49;2.38;;;2.17;;
41436;SDS011;27178;49.460;10.850;2023-04-03T09:02:21;2.70;;;2.50;;
41436;SDS011;27178;49.460;10.850;2023-04-03T09:04:54;3.27;;;2.23;;
41436;SDS011;27178;49.460;10.850;2023-04-03T09:07:25;3.53;;;2.50;;
41436;SDS011;27178;49.460;10.850;2023-04-03T09:10:01;2.70;;;2.17;;
41436;SDS011;27178;49.460;10.850;2023-04-03T09:12:32;2.70;;;2.00;;
41436;SDS011;27178;49.460;10.850;2023-04-03T09:15:08;3.63;;;2.00;;
41436;SDS011;27178;49.460;10.850;2023-04-03T09:17:59;2.30;;;2.10;;
41436;SDS011;27178;49.460;10.850;2023-04-03T09:20:35;4.60;;;2.30;;
41436;SDS011;27178;49.460;10.850;2023-04-03T09:23:15;4.13;;;2.17;;
41436;SDS011;27178;49.460;10.850;2023-04-03T09:25:51;2.47;;;2.23;;
41436;SDS011;27178;49.460;10.850;2023-04-03T09:28:24;5.10;;;2.50;;
41436;SDS011;27178;49.460;10.850;2023-04-03T09:30:55;3.10;;;2.20;;
41436;SDS011;27178;49.460;10.850;2023-04-03T09:33:23;3.07;;;2.20;;
41436;SDS011;27178;49.460;10.850;2023-04-03T09:35:52;2.73;;;2.23;;
41436;SDS011;27178;49.460;10.850;2023-04-03T09:38:21;2.90;;;2.00;;
41436;SDS011;27178;49.460;10.850;2023-04-03T09:40:50;3.43;;;2.07;;
41436;SDS011;27178;49.460;10.850;2023-04-03T09:43:32;2.17;;;1.80;;
41436;SDS011;27178;49.460;10.850;2023-04-03T09:48:58;3.00;;;2.00;;
41436;SDS011;27178;49.460;10.850;2023-04-03T09:51:35;2.80;;;2.10;;
41436;SDS011;27178;49.460;10.850;2023-04-03T09:54:23;1.70;;;1.60;;
41436;SDS011;27178;49.460;10.850;2023-04-03T09:57:10;1.60;;;1.35;;
41436;SDS011;27178;49.460;10.850;2023-04-03T09:59:44;3.17;;;1.88;;
41436;SDS011;27178;49.460;10.850;2023-04-03T10:02:25;2.17;;;1.70;;
41436;SDS011;27178;49.460;10.850;2023-04-03T10:04:59;2.30;;;1.77;;
41436;SDS011;27178;49.460;10.850;2023-04-03T10:07:32;2.37;;;1.93;;
41436;SDS011;27178;49.460;10.850;2023-04-03T10:10:15;2.63;;;1.73;;
41436;SDS011;27178;49.460;10.850;2023-04-03T10:12:46;2.15;;;1.70;;
41436;SDS011;27178;49.460;10.850;2023-04-03T10:15:17;2.80;;;1.63;;
41436;SDS011;27178;49.460;10.850;2023-04-03T10:17:53;2.67;;;2.20;;
41436;SDS011;27178;49.460;10.850;2023-04-03T10:20:28;2.10;;;1.83;;
41436;SDS011;27178;49.460;10.850;2023-04-03T10:23:05;1.80;;;1.70;;
41436;SDS011;27178;49.460;10.850;2023-04-03T10:25:48;2.77;;;1.77;;
41436;SDS011;27178;49.460;10.850;2023-04-03T10:28:30;2.08;;;1.52;;
41436;SDS011;27178;49.460;10.850;2023-04-03T10:31:03;1.70;;;1.60;;
41436;SDS011;27178;49.460;10.850;2023-04-03T10:33:48;2.97;;;1.80;;
41436;SDS011;27178;49.460;10.850;2023-04-03T10:36:26;2.63;;;1.90;;
41436;SDS011;27178;49.460;10.850;2023-04-03T10:39:02;1.97;;;1.77;;
41436;SDS011;27178;49.460;10.850;2023-04-03T10:41:42;3.20;;;1.90;;
41436;SDS011;27178;49.460;10.850;2023-04-03T10:44:40;2.55;;;1.60;;
41436;SDS011;27178;49.460;10.850;2023-04-03T10:47:30;2.97;;;1.90;;
41436;SDS011;27178;49.460;10.850;2023-04-03T10:50:15;2.67;;;1.67;;
41436;SDS011;27178;49.460;10.850;2023-04-03T10:52:57;2.13;;;1.80;;
41436;SDS011;27178;49.460;10.850;2023-04-03T10:55:35;3.13;;;1.97;;
41436;SDS011;27178;49.460;10.850;2023-04-03T10:58:06;2.38;;;2.00;;
41436;SDS011;27178;49.460;10.850;2023-04-03T11:00:45;3.80;;;3.23;;
41436;SDS011;27178;49.460;10.850;2023-04-03T11:03:17;2.33;;;2.00;;
41436;SDS011;27178;49.460;10.850;2023-04-03T11:05:56;2.15;;;1.95;;
41436;SDS011;27178;49.460;10.850;2023-04-03T11:08:28;2.33;;;1.70;;
41436;SDS011;27178;49.460;10.850;2023-04-03T11:11:02;2.25;;;1.83;;
41436;SDS011;27178;49.460;10.850;2023-04-03T11:13:35;3.27;;;2.20;;
41436;SDS011;27178;49.460;10.850;2023-04-03T11:16:09;1.73;;;1.42;;
41436;SDS011;27178;49.460;10.850;2023-04-03T11:18:45;2.50;;;2.15;;
41436;SDS011;27178;49.460;10.850;2023-04-03T11:21:19;3.23;;;1.97;;
41436;SDS011;27178;49.460;10.850;2023-04-03T11:23:51;3.50;;;2.83;;
41436;SDS011;27178;49.460;10.850;2023-04-03T11:26:26;3.58;;;2.45;;
41436;SDS011;27178;49.460;10.850;2023-04-03T11:29:00;1.88;;;1.75;;
41436;SDS011;27178;49.460;10.850;2023-04-03T11:31:38;2.20;;;2.00;;
41436;SDS011;27178;49.460;10.850;2023-04-03T11:34:19;2.20;;;1.90;;
41436;SDS011;27178;49.460;10.850;2023-04-03T11:36:57;3.35;;;1.80;;
41436;SDS011;27178;49.460;10.850;2023-04-03T11:39:28;4.22;;;2.22;;
41436;SDS011;27178;49.460;10.850;2023-04-03T11:44:44;2.30;;;2.10;;
41436;SDS011;27178;49.460;10.850;2023-04-03T11:47:43;2.20;;;2.00;;
41436;SDS011;27178;49.460;10.850;2023-04-03T11:56:03;2.55;;;1.80;;
41436;SDS011;27178;49.460;10.850;2023-04-03T12:01:45;1.80;;;1.70;;
41436;SDS011;27178;49.460;10.850;2023-04-03T12:04:15;2.92;;;1.90;;
41436;SDS011;27178;49.460;10.850;2023-04-03T12:09:56;2.72;;;1.90;;
41436;SDS011;27178;49.460;10.850;2023-04-03T12:12:31;3.55;;;2.42;;
41436;SDS011;27178;49.460;10.850;2023-04-03T12:15:12;2.17;;;1.98;;
41436;SDS011;27178;49.460;10.850;2023-04-03T12:17:53;3.33;;;2.33;;
41436;SDS011;27178;49.460;10.850;2023-04-03T12:23:25;3.13;;;1.70;;
41436;SDS011;27178;49.460;10.850;2023-04-03T12:26:01;2.75;;;2.17;;
41436;SDS011;27178;49.460;10.850;2023-04-03T12:28:41;1.70;;;1.60;;
41436;SDS011;27178;49.460;10.850;2023-04-03T12:31:09;2.22;;;1.70;;
41436;SDS011;27178;49.460;10.850;2023-04-03T12:33:46;2.80;;;2.10;;
41436;SDS011;27178;49.460;10.850;2023-04-03T12:36:30;2.80;;;2.20;;
41436;SDS011;27178;49.460;10.850;2023-04-03T12:39:13;2.75;;;1.88;;
41436;SDS011;27178;49.460;10.850;2023-04-03T12:41:55;2.50;;;1.95;;
41436;SDS011;27178;49.460;10.850;2023-04-03T12:44:33;3.13;;;2.08;;
41436;SDS011;27178;49.460;10.850;2023-04-03T12:47:16;2.67;;;1.85;;
41436;SDS011;27178;49.460;10.850;2023-04-03T12:49:51;3.03;;;1.90;;
41436;SDS011;27178;49.460;10.850;2023-04-03T12:52:24;3.00;;;1.90;;
41436;SDS011;27178;49.460;10.850;2023-04-03T12:55:00;1.63;;;1.50;;
41436;SDS011;27178;49.460;10.850;2023-04-03T12:57:32;2.40;;;2.00;;
41436;SDS011;27178;49.460;10.850;2023-04-03T13:03:00;2.22;;;2.00;;
41436;SDS011;27178;49.460;10.850;2023-04-03T13:05:31;1.92;;;1.63;;
41436;SDS011;27178;49.460;10.850;2023-04-03T13:08:03;2.65;;;1.80;;
41436;SDS011;27178;49.460;10.850;2023-04-03T13:10:35;2.33;;;1.95;;
41436;SDS011;27178;49.460;10.850;2023-04-03T13:13:16;1.67;;;1.40;;
41436;SDS011;27178;49.460;10.850;2023-04-03T13:15:46;1.70;;;1.40;;
41436;SDS011;27178;49.460;10.850;2023-04-03T13:18:22;1.95;;;1.73;;
41436;SDS011;27178;49.460;10.850;2023-04-03T13:20:52;1.80;;;1.40;;
41436;SDS011;27178;49.460;10.850;2023-04-03T13:23:23;1.80;;;1.60;;
41436;SDS011;27178;49.460;10.850;2023-04-03T13:25:52;1.83;;;1.60;;
41436;SDS011;27178;49.460;10.850;2023-04-03T13:28:23;2.58;;;1.80;;
41436;SDS011;27178;49.460;10.850;2023-04-03T13:31:03;3.55;;;2.28;;
41436;SDS011;27178;49.460;10.850;2023-04-03T13:33:36;1.75;;;1.48;;
41436;SDS011;27178;49.460;10.850;2023-04-03T13:36:06;1.80;;;1.60;;
41436;SDS011;27178;49.460;10.850;2023-04-03T13:38:41;1.70;;;1.60;;
41436;SDS011;27178;49.460;10.850;2023-04-03T13:41:21;1.50;;;1.40;;
41436;SDS011;27178;49.460;10.850;2023-04-03T13:43:54;1.52;;;1.42;;
41436;SDS011;27178;49.460;10.850;2023-04-03T13:46:35;1.48;;;1.38;;
41436;SDS011;27178;49.460;10.850;2023-04-03T13:49:16;1.85;;;1.33;;
41436;SDS011;27178;49.460;10.850;2023-04-03T13:51:46;1.42;;;1.33;;
41436;SDS011;27178;49.460;10.850;2023-04-03T13:54:32;1.50;;;1.40;;
41436;SDS011;27178;49.460;10.850;2023-04-03T13:57:03;2.00;;;1.38;;
41436;SDS011;27178;49.460;10.850;2023-04-03T13:59:40;2.50;;;1.60;;
41436;SDS011;27178;49.460;10.850;2023-04-03T14:02:14;2.20;;;1.55;;
41436;SDS011;27178;49.460;10.850;2023-04-03T14:04:48;2.00;;;1.40;;
41436;SDS011;27178;49.460;10.850;2023-04-03T14:07:22;1.65;;;1.50;;
41436;SDS011;27178;49.460;10.850;2023-04-03T14:09:52;1.60;;;1.30;;
41436;SDS011;27178;49.460;10.850;2023-04-03T14:12:24;1.60;;;1.50;;
41436;SDS011;27178;49.460;10.850;2023-04-03T14:14:59;1.55;;;1.38;;
41436;SDS011;27178;49.460;10.850;2023-04-03T14:17:28;1.75;;;1.40;;
41436;SDS011;27178;49.460;10.850;2023-04-03T14:19:58;1.63;;;1.52;;
41436;SDS011;27178;49.460;10.850;2023-04-03T14:22:28;1.90;;;1.42;;
41436;SDS011;27178;49.460;10.850;2023-04-03T14:24:59;1.98;;;1.60;;
41436;SDS011;27178;49.460;10.850;2023-04-03T14:27:28;2.25;;;1.35;;
41436;SDS011;27178;49.460;10.850;2023-04-03T14:29:59;1.30;;;1.20;;
41436;SDS011;27178;49.460;10.850;2023-04-03T14:32:29;1.60;;;1.50;;
41436;SDS011;27178;49.460;10.850;2023-04-03T14:34:58;3.08;;;1.42;;
41436;SDS011;27178;49.460;10.850;2023-04-03T14:37:28;2.35;;;1.50;;
41436;SDS011;27178;49.460;10.850;2023-04-03T14:39:59;1.90;;;1.40;;
41436;SDS011;27178;49.460;10.850;2023-04-03T14:42:31;1.83;;;1.25;;
41436;SDS011;27178;49.460;10.850;2023-04-03T14:45:03;1.85;;;1.60;;
41436;SDS011;27178;49.460;10.850;2023-04-03T14:47:33;2.20;;;1.30;;
41436;SDS011;27178;49.460;10.850;2023-04-03T14:50:07;1.40;;;1.30;;
41436;SDS011;27178;49.460;10.850;2023-04-03T14:52:40;1.55;;;1.35;;
41436;SDS011;27178;49.460;10.850;2023-04-03T14:55:09;2.03;;;1.80;;
41436;SDS011;27178;49.460;10.850;2023-04-03T14:57:39;2.08;;;1.48;;
41436;SDS011;27178;49.460;10.850;2023-04-03T15:00:12;1.70;;;1.55;;
41436;SDS011;27178;49.460;10.850;2023-04-03T15:02:42;1.75;;;1.40;;
41436;SDS011;27178;49.460;10.850;2023-04-03T15:05:12;1.85;;;1.30;;
41436;SDS011;27178;49.460;10.850;2023-04-03T15:07:52;4.75;;;1.27;;
41436;SDS011;27178;49.460;10.850;2023-04-03T15:10:23;1.33;;;1.23;;
41436;SDS011;27178;49.460;10.850;2023-04-03T15:12:53;1.60;;;1.50;;
41436;SDS011;27178;49.460;10.850;2023-04-03T15:15:23;1.92;;;1.48;;
41436;SDS011;27178;49.460;10.850;2023-04-03T15:17:55;1.38;;;1.27;;
41436;SDS011;27178;49.460;10.850;2023-04-03T15:20:26;1.95;;;1.30;;
41436;SDS011;27178;49.460;10.850;2023-04-03T15:22:57;2.88;;;1.60;;